Terminal Aerodrome Forecast
Issued by NWS Cleveland, OH

Home | Current Version | Previous Version | Graphics & Text | Print | Product List | Glossary On
Versions: 1 2 3 4 5 6 7 8 9 10 11 12 13 14 15 16 17 18 19 20 21
000
FTUS41 KCLE 251700
TAFCLE
TAF
KCLE 251726Z 2518/2624 20015G25KT P6SM SCT100 OVC250
     FM252100 21015G25KT P6SM VCSH SCT045 BKN120
      TEMPO 2521/2524 BKN045
     FM260100 20012KT P6SM SCT045 BKN120
     FM260900 20008KT 5SM BR VCSH SCT012 BKN045
     FM261400 20012KT 6SM HZ VCSH SCT025 BKN045
     FM262000 20014KT 6SM -SHRA VCTS OVC045CB=

USA.gov is the U.S. government's official web portal to all federal, state and local government web resources and services.